Time;durP1;ratioP1;P1;durP2;ratioP2;P2;SDS_P1;SDS_P2;PMS_P1;PMS_P2;Temp;Humidity;BMP_temperature;BMP_pressure;BME280_temperature;BME280_humidity;BME280_pressure;Samples;Min_cycle;Max_cycle;Signal;HPM_P1;HPM_P2
2024/01/02 00:01:35;;;;;;;5.00;2.67;;;;;;;;;;755904;180;918764;-63
2024/01/02 00:04:01;;;;;;;6.73;2.63;;;;;;;;;;754071;182;919481;-67
2024/01/02 00:06:26;;;;;;;8.77;2.67;;;;;;;;;;769715;180;919280;-63
2024/01/02 00:08:52;;;;;;;5.20;3.23;;;;;;;;;;753616;182;815488;-67
2024/01/02 00:11:18;;;;;;;4.73;2.50;;;;;;;;;;754451;184;918239;-63
2024/01/02 00:13:44;;;;;;;6.00;2.67;;;;;;;;;;758096;181;815744;-64
2024/01/02 00:16:10;;;;;;;11.63;2.80;;;;;;;;;;741588;186;960315;-67
2024/01/02 00:18:35;;;;;;;13.90;3.10;;;;;;;;;;748317;182;901678;-68
2024/01/02 00:21:02;;;;;;;7.33;2.93;;;;;;;;;;721906;188;879500;-66
2024/01/02 00:23:27;;;;;;;9.60;3.50;;;;;;;;;;752233;182;919446;-67
2024/01/02 00:25:53;;;;;;;15.10;3.73;;;;;;;;;;757935;182;941971;-69
2024/01/02 00:28:19;;;;;;;6.90;2.83;;;;;;;;;;755783;181;919072;-67
2024/01/02 00:30:45;;;;;;;5.87;2.50;;;;;;;;;;763279;179;919280;-68
2024/01/02 00:33:10;;;;;;;4.70;2.43;;;;;;;;;;755185;182;920076;-69
2024/01/02 00:35:37;;;;;;;5.10;2.07;;;;;;;;;;752793;182;919929;-64
2024/01/02 00:38:03;;;;;;;4.50;2.27;;;;;;;;;;760188;181;917064;-67
2024/01/02 00:40:29;;;;;;;5.53;2.50;;;;;;;;;;748528;186;816557;-63
2024/01/02 00:42:55;;;;;;;11.73;3.22;;;;;;;;;;761545;181;919633;-68
2024/01/02 00:45:21;;;;;;;6.33;2.90;;;;;;;;;;759694;182;921100;-63
2024/01/02 00:47:47;;;;;;;8.07;3.30;;;;;;;;;;757549;181;919381;-63
2024/01/02 00:50:12;;;;;;;7.73;2.43;;;;;;;;;;756757;181;923155;-63
2024/01/02 00:52:38;;;;;;;12.37;2.43;;;;;;;;;;751915;184;918869;-64
2024/01/02 00:55:05;;;;;;;6.70;4.85;;;;;;;;;;754787;182;819836;-64
2024/01/02 00:57:31;;;;;;;5.33;2.53;;;;;;;;;;759093;182;919216;-64
2024/01/02 00:59:56;;;;;;;8.87;3.50;;;;;;;;;;754059;182;937899;-64
2024/01/02 01:02:22;;;;;;;7.30;2.50;;;;;;;;;;761769;178;918161;-68
2024/01/02 01:04:48;;;;;;;6.47;2.70;;;;;;;;;;758704;183;921650;-68
2024/01/02 01:07:14;;;;;;;6.60;2.80;;;;;;;;;;746839;184;917495;-69
2024/01/02 01:09:40;;;;;;;8.87;2.63;;;;;;;;;;763221;182;821050;-63
2024/01/02 01:12:06;;;;;;;6.70;2.20;;;;;;;;;;752918;182;920528;-67
2024/01/02 01:14:32;;;;;;;7.05;2.72;;;;;;;;;;755497;182;866339;-63
2024/01/02 01:16:57;;;;;;;9.37;2.47;;;;;;;;;;754499;182;912551;-67
2024/01/02 01:19:23;;;;;;;5.60;2.30;;;;;;;;;;742382;188;909200;-63
2024/01/02 01:21:49;;;;;;;9.23;3.23;;;;;;;;;;746326;185;917278;-63
2024/01/02 01:24:15;;;;;;;6.93;3.13;;;;;;;;;;749026;183;884316;-67
2024/01/02 01:26:41;;;;;;;7.70;2.70;;;;;;;;;;763483;181;821325;-63
2024/01/02 01:29:07;;;;;;;5.57;2.70;;;;;;;;;;753948;181;919209;-67
2024/01/02 01:31:32;;;;;;;4.57;2.23;;;;;;;;;;752087;182;919420;-67
2024/01/02 01:33:58;;;;;;;6.30;3.33;;;;;;;;;;763676;181;817225;-63
2024/01/02 01:36:24;;;;;;;8.37;2.67;;;;;;;;;;755774;181;919488;-64
2024/01/02 01:38:50;;;;;;;6.40;2.87;;;;;;;;;;757176;182;816995;-67
2024/01/02 01:41:17;;;;;;;7.37;2.28;;;;;;;;;;753849;182;920771;-67
2024/01/02 01:43:42;;;;;;;4.73;2.63;;;;;;;;;;738609;187;928311;-67
2024/01/02 01:46:08;;;;;;;8.10;2.30;;;;;;;;;;759597;181;921151;-67
2024/01/02 01:48:34;;;;;;;4.50;2.73;;;;;;;;;;753638;183;924387;-63
2024/01/02 01:51:00;;;;;;;7.10;3.53;;;;;;;;;;758634;179;918636;-62
2024/01/02 01:53:26;;;;;;;4.80;2.13;;;;;;;;;;754725;181;921136;-67
2024/01/02 01:55:51;;;;;;;5.50;2.90;;;;;;;;;;757997;181;919522;-65
2024/01/02 01:58:17;;;;;;;5.03;2.30;;;;;;;;;;756673;181;817940;-63
2024/01/02 02:00:43;;;;;;;10.07;2.80;;;;;;;;;;758848;182;919380;-67
2024/01/02 02:03:09;;;;;;;7.50;2.60;;;;;;;;;;749232;182;917879;-67
2024/01/02 02:05:35;;;;;;;7.50;3.00;;;;;;;;;;762918;182;916534;-67
2024/01/02 02:08:00;;;;;;;6.60;3.03;;;;;;;;;;754963;182;919662;-67
2024/01/02 02:10:26;;;;;;;6.90;3.20;;;;;;;;;;755250;181;920718;-63
2024/01/02 02:12:52;;;;;;;11.53;2.53;;;;;;;;;;754751;181;1021272;-64
2024/01/02 02:15:18;;;;;;;6.60;2.70;;;;;;;;;;758445;185;819090;-63
2024/01/02 02:17:44;;;;;;;5.80;2.10;;;;;;;;;;756913;181;921449;-63
2024/01/02 02:20:10;;;;;;;9.70;2.80;;;;;;;;;;751935;182;921386;-63
2024/01/02 02:22:36;;;;;;;4.60;3.00;;;;;;;;;;760517;179;817800;-64
2024/01/02 02:25:02;;;;;;;9.90;3.07;;;;;;;;;;751161;185;919900;-67
2024/01/02 02:27:27;;;;;;;7.30;2.33;;;;;;;;;;755245;182;817145;-64
2024/01/02 02:29:53;;;;;;;5.80;2.50;;;;;;;;;;760174;181;918890;-67
2024/01/02 02:32:19;;;;;;;9.10;2.67;;;;;;;;;;760152;181;817283;-68
2024/01/02 02:34:45;;;;;;;10.03;2.97;;;;;;;;;;757843;181;918817;-67
2024/01/02 02:37:11;;;;;;;8.30;3.20;;;;;;;;;;751214;183;918857;-64
2024/01/02 02:39:37;;;;;;;7.43;3.30;;;;;;;;;;754512;185;917362;-67
2024/01/02 02:42:03;;;;;;;3.47;2.13;;;;;;;;;;756873;183;918927;-67
2024/01/02 02:44:28;;;;;;;4.57;2.80;;;;;;;;;;755695;182;914755;-67
2024/01/02 02:46:54;;;;;;;8.43;2.90;;;;;;;;;;761901;181;915341;-63
2024/01/02 02:49:20;;;;;;;7.77;2.43;;;;;;;;;;756127;181;919240;-63
2024/01/02 02:51:46;;;;;;;4.97;2.25;;;;;;;;;;755987;182;918157;-63
2024/01/02 02:54:12;;;;;;;5.03;3.07;;;;;;;;;;756286;184;918730;-63
2024/01/02 02:56:38;;;;;;;6.40;2.00;;;;;;;;;;755935;183;814628;-62
2024/01/02 02:59:03;;;;;;;8.70;2.10;;;;;;;;;;754821;182;919610;-62
2024/01/02 03:01:29;;;;;;;6.93;3.00;;;;;;;;;;749980;185;919464;-66
2024/01/02 03:03:56;;;;;;;5.57;2.50;;;;;;;;;;737156;186;922830;-68
2024/01/02 03:06:21;;;;;;;5.63;3.03;;;;;;;;;;759532;181;919127;-61
2024/01/02 03:08:47;;;;;;;7.77;2.20;;;;;;;;;;753497;184;919141;-62
2024/01/02 03:11:13;;;;;;;6.70;2.63;;;;;;;;;;767516;181;918500;-66
2024/01/02 03:13:38;;;;;;;9.13;3.70;;;;;;;;;;754874;184;919038;-67
2024/01/02 03:16:05;;;;;;;4.93;2.20;;;;;;;;;;755008;182;916538;-66
2024/01/02 03:18:31;;;;;;;5.97;2.80;;;;;;;;;;763215;181;815664;-62
2024/01/02 03:20:56;;;;;;;5.10;2.27;;;;;;;;;;755806;181;920802;-67
2024/01/02 03:23:23;;;;;;;6.72;2.72;;;;;;;;;;755335;182;1046263;-62
2024/01/02 03:25:48;;;;;;;7.63;2.67;;;;;;;;;;763015;181;816086;-66
2024/01/02 03:28:14;;;;;;;6.90;2.50;;;;;;;;;;753595;183;919325;-62
2024/01/02 03:30:40;;;;;;;7.27;2.50;;;;;;;;;;753897;183;919701;-66
2024/01/02 03:33:06;;;;;;;5.43;2.30;;;;;;;;;;755783;181;815669;-66
2024/01/02 03:35:31;;;;;;;8.20;2.30;;;;;;;;;;753025;184;817865;-67
2024/01/02 03:37:57;;;;;;;3.63;2.33;;;;;;;;;;757699;181;920646;-61
2024/01/02 03:40:23;;;;;;;12.77;2.60;;;;;;;;;;754760;181;982520;-66
2024/01/02 03:42:49;;;;;;;4.80;2.70;;;;;;;;;;757466;184;820181;-61
2024/01/02 03:45:15;;;;;;;14.17;2.60;;;;;;;;;;755530;181;920068;-67
2024/01/02 03:47:41;;;;;;;11.53;2.60;;;;;;;;;;754024;182;1022895;-62
2024/01/02 03:50:07;;;;;;;7.93;2.37;;;;;;;;;;758273;181;918972;-61
2024/01/02 03:52:34;;;;;;;5.57;2.60;;;;;;;;;;754463;183;918837;-67
2024/01/02 03:54:59;;;;;;;5.93;2.60;;;;;;;;;;752441;183;919031;-61
2024/01/02 03:57:26;;;;;;;4.50;2.50;;;;;;;;;;758938;185;817470;-66
2024/01/02 03:59:50;;;;;;;10.57;2.37;;;;;;;;;;759300;181;919790;-61
2024/01/02 04:02:16;;;;;;;5.57;2.33;;;;;;;;;;759022;181;916692;-68
2024/01/02 04:04:42;;;;;;;3.50;2.30;;;;;;;;;;754142;181;918618;-67
2024/01/02 04:07:08;;;;;;;4.30;2.03;;;;;;;;;;758510;181;922332;-67
2024/01/02 04:09:34;;;;;;;7.20;3.30;;;;;;;;;;755026;182;817770;-67
2024/01/02 04:12:00;;;;;;;5.57;2.40;;;;;;;;;;752763;182;922708;-61
2024/01/02 04:14:25;;;;;;;4.22;2.40;;;;;;;;;;759276;182;919415;-66
2024/01/02 04:16:51;;;;;;;5.93;2.67;;;;;;;;;;756718;180;919281;-66
2024/01/02 04:19:17;;;;;;;8.43;2.60;;;;;;;;;;757163;182;914272;-67
2024/01/02 04:21:43;;;;;;;5.70;2.40;;;;;;;;;;757515;183;918741;-66
2024/01/02 04:24:09;;;;;;;5.13;2.10;;;;;;;;;;752487;181;916499;-61
2024/01/02 04:26:35;;;;;;;11.40;2.00;;;;;;;;;;756095;181;940707;-61
2024/01/02 04:29:01;;;;;;;5.67;2.23;;;;;;;;;;752985;182;919998;-66
2024/01/02 04:31:28;;;;;;;3.43;2.23;;;;;;;;;;758650;182;919083;-60
2024/01/02 04:33:54;;;;;;;4.30;2.13;;;;;;;;;;764292;181;924593;-67
2024/01/02 04:36:20;;;;;;;7.13;3.00;;;;;;;;;;757841;178;918497;-61
2024/01/02 04:38:46;;;;;;;6.27;2.40;;;;;;;;;;760357;180;918024;-61
2024/01/02 04:41:13;;;;;;;8.73;3.07;;;;;;;;;;759422;181;819924;-67
2024/01/02 04:43:38;;;;;;;6.40;2.13;;;;;;;;;;751787;182;1020396;-61
2024/01/02 04:46:03;;;;;;;5.30;2.33;;;;;;;;;;760075;183;943503;-67
2024/01/02 04:48:29;;;;;;;9.13;2.13;;;;;;;;;;731736;188;918723;-61
2024/01/02 04:50:55;;;;;;;3.77;2.63;;;;;;;;;;756395;182;862740;-61
2024/01/02 04:53:21;;;;;;;4.13;2.03;;;;;;;;;;753929;181;919211;-61
2024/01/02 04:55:47;;;;;;;3.60;1.83;;;;;;;;;;745782;184;874939;-68
2024/01/02 04:58:13;;;;;;;3.80;1.85;;;;;;;;;;754924;181;921705;-61
2024/01/02 05:00:39;;;;;;;8.20;2.30;;;;;;;;;;753614;182;1018199;-62
2024/01/02 05:03:05;;;;;;;5.87;2.23;;;;;;;;;;758667;183;918185;-60
2024/01/02 05:05:32;;;;;;;4.77;1.70;;;;;;;;;;756159;182;918732;-66
2024/01/02 05:07:58;;;;;;;4.70;2.13;;;;;;;;;;756218;181;921712;-61
2024/01/02 05:10:24;;;;;;;5.23;1.70;;;;;;;;;;761672;183;828095;-67
2024/01/02 05:12:51;;;;;;;4.20;2.30;;;;;;;;;;755128;183;918904;-60
2024/01/02 05:15:16;;;;;;;6.47;2.57;;;;;;;;;;754585;182;818442;-60
2024/01/02 05:17:42;;;;;;;3.23;1.63;;;;;;;;;;759358;181;1002728;-61
2024/01/02 05:20:08;;;;;;;6.37;2.20;;;;;;;;;;755715;182;917578;-60
2024/01/02 05:22:33;;;;;;;5.80;1.93;;;;;;;;;;759601;178;922737;-60
2024/01/02 05:24:59;;;;;;;4.77;2.27;;;;;;;;;;755844;183;919362;-60
2024/01/02 05:27:25;;;;;;;7.53;2.50;;;;;;;;;;759014;180;919079;-66
2024/01/02 05:29:51;;;;;;;5.63;2.23;;;;;;;;;;755248;182;918672;-66
2024/01/02 05:32:17;;;;;;;5.23;2.80;;;;;;;;;;755995;181;920187;-66
2024/01/02 05:34:43;;;;;;;5.83;2.97;;;;;;;;;;760938;181;1025417;-66
2024/01/02 05:37:09;;;;;;;5.13;2.37;;;;;;;;;;756061;182;918006;-60
2024/01/02 05:39:36;;;;;;;5.80;2.07;;;;;;;;;;757874;182;921408;-66
2024/01/02 05:42:03;;;;;;;4.90;2.08;;;;;;;;;;756874;182;919320;-60
2024/01/02 05:44:29;;;;;;;4.10;2.30;;;;;;;;;;755198;185;816429;-59
2024/01/02 05:46:55;;;;;;;3.80;1.80;;;;;;;;;;758217;181;919107;-65
2024/01/02 05:49:21;;;;;;;4.53;2.00;;;;;;;;;;758054;181;938733;-66
2024/01/02 05:51:47;;;;;;;3.43;1.77;;;;;;;;;;758642;181;815134;-59
2024/01/02 05:54:12;;;;;;;5.73;3.13;;;;;;;;;;763216;181;883589;-59
2024/01/02 05:56:38;;;;;;;4.90;1.93;;;;;;;;;;753469;182;897351;-66
2024/01/02 05:59:04;;;;;;;4.10;2.00;;;;;;;;;;759751;184;917306;-66
2024/01/02 06:01:30;;;;;;;5.83;2.70;;;;;;;;;;756774;181;918395;-67
2024/01/02 06:03:56;;;;;;;4.28;2.78;;;;;;;;;;753983;183;917372;-65
2024/01/02 06:06:21;;;;;;;9.20;1.97;;;;;;;;;;755581;181;920431;-59
2024/01/02 06:08:48;;;;;;;6.87;1.70;;;;;;;;;;757576;181;819943;-66
2024/01/02 06:11:15;;;;;;;4.60;2.20;;;;;;;;;;755718;179;882792;-66
2024/01/02 06:13:41;;;;;;;5.80;2.60;;;;;;;;;;748330;185;918761;-59
2024/01/02 06:16:11;;;;;;;9.53;2.77;;;;;;;;;;759869;181;919517;-59
2024/01/02 06:18:37;;;;;;;5.43;3.20;;;;;;;;;;755120;181;918712;-59
2024/01/02 06:21:04;;;;;;;6.93;2.70;;;;;;;;;;754353;181;920975;-66
2024/01/02 06:23:28;;;;;;;7.97;3.70;;;;;;;;;;755646;184;918393;-59
2024/01/02 06:25:54;;;;;;;10.10;3.43;;;;;;;;;;757212;181;917593;-66
2024/01/02 06:28:20;;;;;;;5.87;4.10;;;;;;;;;;760469;183;913276;-66
2024/01/02 06:30:46;;;;;;;5.90;2.60;;;;;;;;;;756812;181;915238;-66
2024/01/02 06:33:12;;;;;;;6.27;2.87;;;;;;;;;;755945;185;916026;-66
2024/01/02 06:35:37;;;;;;;7.80;3.07;;;;;;;;;;752875;183;914733;-59
2024/01/02 06:38:03;;;;;;;7.03;5.50;;;;;;;;;;751676;182;914475;-66
2024/01/02 06:40:29;;;;;;;10.77;4.10;;;;;;;;;;763634;181;914849;-66
2024/01/02 06:42:55;;;;;;;5.90;3.00;;;;;;;;;;757709;181;862392;-66
2024/01/02 06:45:21;;;;;;;8.00;3.30;;;;;;;;;;756603;181;917981;-66
2024/01/02 06:47:47;;;;;;;13.80;3.73;;;;;;;;;;757908;184;922226;-59
2024/01/02 06:50:13;;;;;;;5.97;2.80;;;;;;;;;;750237;184;922472;-59
2024/01/02 06:52:39;;;;;;;6.30;3.37;;;;;;;;;;757213;181;928208;-66
2024/01/02 06:55:05;;;;;;;5.07;3.17;;;;;;;;;;754938;181;919522;-66
2024/01/02 06:57:30;;;;;;;9.10;3.20;;;;;;;;;;756786;183;920044;-66
2024/01/02 06:59:56;;;;;;;6.93;3.37;;;;;;;;;;754158;181;914645;-59
2024/01/02 07:02:22;;;;;;;17.83;3.40;;;;;;;;;;753914;182;919277;-66
2024/01/02 07:04:48;;;;;;;15.30;3.40;;;;;;;;;;758701;181;920134;-66
2024/01/02 07:07:14;;;;;;;5.80;2.50;;;;;;;;;;757859;182;920232;-59
2024/01/02 07:09:40;;;;;;;4.30;2.63;;;;;;;;;;750494;183;919107;-66
2024/01/02 07:12:07;;;;;;;6.67;2.67;;;;;;;;;;731754;188;815974;-59
2024/01/02 07:14:33;;;;;;;4.73;2.40;;;;;;;;;;757930;182;918274;-59
2024/01/02 07:16:58;;;;;;;6.80;3.23;;;;;;;;;;754273;182;898209;-66
2024/01/02 07:19:24;;;;;;;4.20;2.50;;;;;;;;;;766067;181;920710;-67
2024/01/02 07:21:50;;;;;;;8.37;3.17;;;;;;;;;;755733;181;917532;-59
2024/01/02 07:24:17;;;;;;;7.00;2.80;;;;;;;;;;753144;181;1028465;-59
2024/01/02 07:26:42;;;;;;;4.97;3.20;;;;;;;;;;751362;181;965932;-59
2024/01/02 07:29:08;;;;;;;5.73;3.07;;;;;;;;;;758475;184;915228;-59
2024/01/02 07:31:35;;;;;;;5.27;3.20;;;;;;;;;;750488;183;936538;-59
2024/01/02 07:34:00;;;;;;;4.90;2.67;;;;;;;;;;752087;182;895365;-66
2024/01/02 07:36:26;;;;;;;7.13;3.00;;;;;;;;;;757416;183;906946;-60
2024/01/02 07:38:52;;;;;;;5.40;3.23;;;;;;;;;;754067;183;923452;-60
2024/01/02 07:41:17;;;;;;;6.47;2.83;;;;;;;;;;752533;182;918551;-59
2024/01/02 07:43:43;;;;;;;5.87;3.13;;;;;;;;;;762364;183;713750;-66
2024/01/02 07:46:09;;;;;;;7.27;3.93;;;;;;;;;;755269;181;918369;-66
2024/01/02 07:48:35;;;;;;;12.33;3.90;;;;;;;;;;753083;182;910939;-67
2024/01/02 07:51:01;;;;;;;13.30;7.20;;;;;;;;;;753142;182;919259;-66
2024/01/02 07:53:27;;;;;;;20.27;11.20;;;;;;;;;;746809;186;1021496;-60
2024/01/02 07:55:52;;;;;;;24.17;11.90;;;;;;;;;;747132;185;919289;-60
2024/01/02 07:58:18;;;;;;;31.17;14.40;;;;;;;;;;754714;183;915738;-66
2024/01/02 08:00:44;;;;;;;16.73;8.85;;;;;;;;;;757583;181;919338;-60
2024/01/02 08:03:10;;;;;;;11.03;6.07;;;;;;;;;;754424;181;911116;-61
2024/01/02 08:05:36;;;;;;;11.70;6.27;;;;;;;;;;755354;181;916461;-60
2024/01/02 08:08:02;;;;;;;15.85;7.05;;;;;;;;;;760169;183;814034;-60
2024/01/02 08:10:28;;;;;;;22.03;10.17;;;;;;;;;;756318;182;918463;-66
2024/01/02 08:12:53;;;;;;;22.60;10.13;;;;;;;;;;747461;185;933102;-60
2024/01/02 08:15:19;;;;;;;16.30;9.20;;;;;;;;;;757527;182;917919;-61
2024/01/02 08:17:45;;;;;;;16.23;8.77;;;;;;;;;;757279;181;915385;-61
2024/01/02 08:20:11;;;;;;;9.53;5.10;;;;;;;;;;755525;182;902943;-66
2024/01/02 08:22:37;;;;;;;8.27;4.10;;;;;;;;;;753299;182;913912;-62
2024/01/02 08:25:03;;;;;;;15.33;5.80;;;;;;;;;;760550;181;819678;-66
2024/01/02 08:27:29;;;;;;;12.13;7.07;;;;;;;;;;753521;181;919407;-67
2024/01/02 08:29:55;;;;;;;21.67;11.63;;;;;;;;;;761760;181;914032;-66
2024/01/02 08:32:21;;;;;;;17.53;10.73;;;;;;;;;;762828;181;735667;-67
2024/01/02 08:34:47;;;;;;;15.30;9.60;;;;;;;;;;760463;181;919493;-68
2024/01/02 08:37:12;;;;;;;16.67;11.73;;;;;;;;;;759782;179;917723;-66
2024/01/02 08:39:38;;;;;;;25.17;13.37;;;;;;;;;;759381;185;831116;-65
2024/01/02 08:42:04;;;;;;;29.87;15.47;;;;;;;;;;756385;181;920268;-64
2024/01/02 08:44:30;;;;;;;24.60;13.90;;;;;;;;;;758380;181;910429;-67
2024/01/02 08:46:56;;;;;;;19.50;12.70;;;;;;;;;;754628;182;818177;-64
2024/01/02 08:49:22;;;;;;;20.90;12.67;;;;;;;;;;768797;181;916215;-66
2024/01/02 08:51:48;;;;;;;21.40;12.65;;;;;;;;;;750216;182;903102;-66
2024/01/02 08:54:14;;;;;;;20.80;13.60;;;;;;;;;;752294;182;921104;-67
2024/01/02 08:56:39;;;;;;;23.73;12.07;;;;;;;;;;762734;181;813843;-63
2024/01/02 08:59:06;;;;;;;23.00;11.47;;;;;;;;;;754513;182;915327;-67
2024/01/02 09:01:31;;;;;;;13.50;8.30;;;;;;;;;;758965;181;917708;-64
2024/01/02 09:03:57;;;;;;;30.03;12.17;;;;;;;;;;758528;184;916529;-68
2024/01/02 09:06:24;;;;;;;19.50;9.70;;;;;;;;;;755714;183;919072;-66
2024/01/02 09:08:49;;;;;;;15.20;7.83;;;;;;;;;;759983;180;919961;-65
2024/01/02 09:11:15;;;;;;;12.68;6.95;;;;;;;;;;762829;181;918887;-66
2024/01/02 09:13:41;;;;;;;20.30;4.70;;;;;;;;;;765057;177;919924;-68
2024/01/02 09:16:08;;;;;;;12.00;6.47;;;;;;;;;;758235;182;817555;-67
2024/01/02 09:18:33;;;;;;;10.47;6.10;;;;;;;;;;755109;181;874361;-67
2024/01/02 09:20:59;;;;;;;13.30;6.30;;;;;;;;;;762848;181;919002;-68
2024/01/02 09:23:25;;;;;;;9.33;5.40;;;;;;;;;;754298;183;876726;-65
2024/01/02 09:25:51;;;;;;;7.57;4.40;;;;;;;;;;753910;183;919122;-64
2024/01/02 09:28:17;;;;;;;15.20;4.40;;;;;;;;;;757929;181;856714;-63
2024/01/02 09:30:43;;;;;;;6.82;4.12;;;;;;;;;;755858;181;832116;-67
2024/01/02 09:33:09;;;;;;;4.87;3.13;;;;;;;;;;754714;182;916789;-64
2024/01/02 09:35:34;;;;;;;8.83;2.93;;;;;;;;;;762095;181;818237;-63
2024/01/02 09:38:00;;;;;;;7.30;2.63;;;;;;;;;;756350;182;918194;-68
2024/01/02 09:40:42;;;;;;;3.90;2.10;;;;;;;;;;753044;182;919136;-64
2024/01/02 09:43:09;;;;;;;6.13;2.10;;;;;;;;;;752300;182;917125;-64
2024/01/02 09:45:35;;;;;;;8.27;2.50;;;;;;;;;;755566;181;915882;-68
2024/01/02 09:48:02;;;;;;;6.87;2.37;;;;;;;;;;757608;183;916909;-68
2024/01/02 09:50:32;;;;;;;6.33;2.00;;;;;;;;;;736006;186;632039;-70
2024/01/02 09:53:18;;;;;;;5.30;2.27;;;;;;;;;;739391;188;624149;-65
2024/01/02 09:55:47;;;;;;;4.40;2.83;;;;;;;;;;738915;186;629018;-64
2024/01/02 09:58:26;;;;;;;4.90;2.63;;;;;;;;;;738945;186;625779;-64
2024/01/02 10:00:53;;;;;;;8.50;2.90;;;;;;;;;;738365;185;817727;-68
2024/01/02 10:03:21;;;;;;;11.17;3.30;;;;;;;;;;747856;184;935641;-70
2024/01/02 10:05:53;;;;;;;14.07;3.40;;;;;;;;;;750526;183;811543;-68
2024/01/02 10:08:21;;;;;;;7.00;2.37;;;;;;;;;;748899;186;918333;-68
2024/01/02 10:10:48;;;;;;;6.83;2.90;;;;;;;;;;746867;184;923769;-64
2024/01/02 10:13:15;;;;;;;5.87;2.50;;;;;;;;;;729406;189;773865;-63
2024/01/02 10:15:42;;;;;;;9.17;2.63;;;;;;;;;;761385;181;916600;-62
2024/01/02 10:18:08;;;;;;;5.97;2.50;;;;;;;;;;740826;181;917902;-63
2024/01/02 10:20:34;;;;;;;4.53;1.73;;;;;;;;;;768592;181;918998;-71
2024/01/02 10:23:05;;;;;;;9.63;2.60;;;;;;;;;;760098;181;917924;-63
2024/01/02 10:25:30;;;;;;;7.60;2.77;;;;;;;;;;755463;181;920236;-63
2024/01/02 10:28:02;;;;;;;4.10;2.00;;;;;;;;;;756021;178;817356;-69
2024/01/02 10:30:25;;;;;;;7.53;2.50;;;;;;;;;;756607;183;909022;-71
2024/01/02 10:32:57;;;;;;;12.67;3.23;;;;;;;;;;759330;181;913272;-69
2024/01/02 10:35:32;;;;;;;8.90;3.37;;;;;;;;;;756709;181;937444;-69
2024/01/02 10:38:08;;;;;;;13.77;2.97;;;;;;;;;;757492;182;832997;-70
2024/01/02 10:40:34;;;;;;;15.83;3.50;;;;;;;;;;754488;181;917402;-64
2024/01/02 10:43:07;;;;;;;8.00;3.40;;;;;;;;;;758784;182;920350;-63
2024/01/02 10:45:34;;;;;;;8.50;3.23;;;;;;;;;;741609;186;915665;-63
2024/01/02 10:48:02;;;;;;;8.32;3.00;;;;;;;;;;749656;184;913599;-69
2024/01/02 10:50:28;;;;;;;11.83;3.70;;;;;;;;;;747305;185;918386;-63
2024/01/02 10:52:55;;;;;;;6.77;2.93;;;;;;;;;;746931;186;803914;-69
2024/01/02 10:55:28;;;;;;;5.93;2.30;;;;;;;;;;749381;185;919430;-63
2024/01/02 10:57:53;;;;;;;11.43;3.23;;;;;;;;;;747554;185;920164;-63
2024/01/02 11:00:22;;;;;;;7.77;2.90;;;;;;;;;;751007;186;919969;-69
2024/01/02 11:02:47;;;;;;;6.33;2.50;;;;;;;;;;756679;181;917990;-62
2024/01/02 11:05:18;;;;;;;5.83;2.50;;;;;;;;;;753651;181;817133;-64
2024/01/02 11:07:44;;;;;;;5.00;2.72;;;;;;;;;;757278;181;915753;-63
2024/01/02 11:10:09;;;;;;;5.23;2.33;;;;;;;;;;755088;183;918019;-69
2024/01/02 11:12:35;;;;;;;5.53;2.73;;;;;;;;;;748895;182;919637;-63
2024/01/02 11:15:00;;;;;;;8.80;3.50;;;;;;;;;;754425;181;924350;-64
2024/01/02 11:17:26;;;;;;;5.00;2.10;;;;;;;;;;764482;181;918711;-63
2024/01/02 11:19:53;;;;;;;7.10;3.60;;;;;;;;;;758917;181;918708;-70
2024/01/02 11:22:18;;;;;;;5.13;2.90;;;;;;;;;;756101;181;926244;-69
2024/01/02 11:24:47;;;;;;;6.83;2.80;;;;;;;;;;760766;181;940465;-63
2024/01/02 11:27:12;;;;;;;8.03;3.37;;;;;;;;;;765270;176;724661;-69
2024/01/02 11:29:41;;;;;;;6.60;2.77;;;;;;;;;;756030;181;815825;-64
2024/01/02 11:32:04;;;;;;;6.93;3.55;;;;;;;;;;744998;184;944497;-63
2024/01/02 11:34:30;;;;;;;6.20;2.93;;;;;;;;;;761264;181;919131;-69
2024/01/02 11:37:14;;;;;;;12.77;2.50;;;;;;;;;;758080;181;815690;-63
2024/01/02 11:39:45;;;;;;;5.17;2.73;;;;;;;;;;749720;182;918387;-69
2024/01/02 11:42:13;;;;;;;6.07;2.23;;;;;;;;;;753924;181;935783;-63
2024/01/02 11:44:54;;;;;;;4.30;1.67;;;;;;;;;;752223;182;963942;-69
2024/01/02 11:47:20;;;;;;;8.13;3.07;;;;;;;;;;755328;181;925912;-64
2024/01/02 11:49:46;;;;;;;6.20;2.60;;;;;;;;;;758714;182;818629;-69
2024/01/02 11:52:12;;;;;;;4.43;2.00;;;;;;;;;;753169;181;916660;-63
2024/01/02 11:54:49;;;;;;;5.77;2.37;;;;;;;;;;759552;181;842317;-64
2024/01/02 11:57:15;;;;;;;8.83;2.57;;;;;;;;;;754310;181;819710;-63
2024/01/02 11:59:45;;;;;;;4.30;2.30;;;;;;;;;;759491;182;885741;-62
2024/01/02 12:02:12;;;;;;;4.60;2.27;;;;;;;;;;744762;185;895894;-63
2024/01/02 12:04:54;;;;;;;5.70;2.50;;;;;;;;;;747105;184;909079;-71
2024/01/02 12:07:21;;;;;;;8.13;2.47;;;;;;;;;;748056;182;919791;-71
2024/01/02 12:09:49;;;;;;;6.53;2.63;;;;;;;;;;759622;181;916049;-63
2024/01/02 12:12:19;;;;;;;7.93;2.20;;;;;;;;;;755455;182;919137;-69
2024/01/02 12:14:51;;;;;;;4.20;2.37;;;;;;;;;;757426;181;921468;-64
2024/01/02 12:17:18;;;;;;;4.45;2.50;;;;;;;;;;761288;181;920929;-69
2024/01/02 12:19:42;;;;;;;4.23;2.27;;;;;;;;;;759483;182;816983;-69
2024/01/02 12:22:10;;;;;;;10.10;2.73;;;;;;;;;;760852;181;816528;-62
2024/01/02 12:24:34;;;;;;;4.10;1.53;;;;;;;;;;754146;181;817020;-69
2024/01/02 12:27:00;;;;;;;2.40;1.27;;;;;;;;;;756711;182;813009;-70
2024/01/02 12:29:30;;;;;;;3.30;1.63;;;;;;;;;;760047;182;916642;-63
2024/01/02 12:31:57;;;;;;;4.87;1.80;;;;;;;;;;746028;184;918055;-62
2024/01/02 12:34:22;;;;;;;7.05;1.65;;;;;;;;;;758456;181;815698;-69
2024/01/02 12:36:49;;;;;;;8.30;1.80;;;;;;;;;;763360;181;817597;-63
2024/01/02 12:39:15;;;;;;;4.33;1.50;;;;;;;;;;757255;181;918542;-65
2024/01/02 12:41:44;;;;;;;3.70;1.53;;;;;;;;;;757463;181;818517;-71
2024/01/02 12:44:08;;;;;;;5.80;1.77;;;;;;;;;;756269;181;919249;-69
2024/01/02 12:46:40;;;;;;;3.80;1.73;;;;;;;;;;760199;182;920895;-69
2024/01/02 12:49:09;;;;;;;4.30;2.10;;;;;;;;;;757993;181;919186;-70
2024/01/02 12:51:35;;;;;;;3.30;1.70;;;;;;;;;;753441;181;925552;-68
2024/01/02 12:54:00;;;;;;;4.83;1.80;;;;;;;;;;754751;181;817843;-69
2024/01/02 12:56:26;;;;;;;2.93;1.50;;;;;;;;;;754956;182;887178;-61
2024/01/02 12:58:53;;;;;;;3.63;1.70;;;;;;;;;;761048;181;816695;-68
2024/01/02 13:01:18;;;;;;;7.70;4.27;;;;;;;;;;754364;178;878165;-62
2024/01/02 13:03:44;;;;;;;7.90;1.97;;;;;;;;;;757987;181;816087;-68
2024/01/02 13:06:10;;;;;;;2.80;1.53;;;;;;;;;;756425;182;843178;-62
2024/01/02 13:08:35;;;;;;;2.90;1.60;;;;;;;;;;757583;182;651894;-62
2024/01/02 13:11:01;;;;;;;4.80;2.03;;;;;;;;;;760806;182;619143;-70
2024/01/02 13:13:27;;;;;;;3.10;1.60;;;;;;;;;;752063;184;630128;-70
2024/01/02 13:15:53;;;;;;;6.97;2.10;;;;;;;;;;748446;183;911155;-70
2024/01/02 13:18:19;;;;;;;4.00;1.57;;;;;;;;;;762042;181;919052;-62
2024/01/02 13:20:45;;;;;;;5.73;2.70;;;;;;;;;;753967;182;823132;-69
2024/01/02 13:23:11;;;;;;;3.47;1.90;;;;;;;;;;755861;181;817053;-62
2024/01/02 13:25:39;;;;;;;4.33;2.00;;;;;;;;;;753840;182;858702;-63
2024/01/02 13:28:11;;;;;;;6.67;2.10;;;;;;;;;;757459;184;626554;-62
2024/01/02 13:30:39;;;;;;;3.03;1.60;;;;;;;;;;753808;182;851058;-63
2024/01/02 13:33:05;;;;;;;3.00;1.60;;;;;;;;;;751517;181;904256;-63
2024/01/02 13:35:30;;;;;;;6.40;2.20;;;;;;;;;;759394;181;814079;-62
2024/01/02 13:37:56;;;;;;;4.10;2.07;;;;;;;;;;754287;182;902569;-68
2024/01/02 13:40:23;;;;;;;4.20;2.70;;;;;;;;;;759115;181;919079;-70
2024/01/02 13:42:53;;;;;;;3.90;1.97;;;;;;;;;;752442;182;918312;-68
2024/01/02 13:45:21;;;;;;;6.60;2.83;;;;;;;;;;755508;182;931219;-62
2024/01/02 13:47:46;;;;;;;4.27;2.80;;;;;;;;;;746267;184;919227;-68
2024/01/02 13:50:12;;;;;;;3.47;2.10;;;;;;;;;;750750;181;919338;-68
2024/01/02 13:52:40;;;;;;;6.13;2.57;;;;;;;;;;751822;180;875498;-67
2024/01/02 13:55:04;;;;;;;4.10;1.90;;;;;;;;;;755173;182;919665;-68
2024/01/02 13:57:34;;;;;;;3.50;1.97;;;;;;;;;;760589;181;815417;-62
2024/01/02 14:00:08;;;;;;;3.50;1.73;;;;;;;;;;755685;181;861264;-69
2024/01/02 14:02:32;;;;;;;4.25;1.98;;;;;;;;;;753563;182;918880;-68
2024/01/02 14:04:58;;;;;;;4.17;2.13;;;;;;;;;;741955;186;918626;-63
2024/01/02 14:07:24;;;;;;;4.27;2.20;;;;;;;;;;742366;186;1023594;-62
2024/01/02 14:09:50;;;;;;;4.40;2.50;;;;;;;;;;746828;183;809726;-68
2024/01/02 14:12:16;;;;;;;10.30;6.27;;;;;;;;;;752586;185;833075;-63
2024/01/02 14:14:44;;;;;;;5.20;2.70;;;;;;;;;;748424;184;918714;-68
2024/01/02 14:17:10;;;;;;;8.25;2.95;;;;;;;;;;751350;182;899223;-68
2024/01/02 14:19:36;;;;;;;11.00;4.30;;;;;;;;;;753854;184;826623;-62
2024/01/02 14:22:02;;;;;;;20.77;9.00;;;;;;;;;;751008;182;918279;-69